createdAt,value
2017-12-01T00:05:43.579Z,98548.09
2017-12-01T00:11:47.975Z,98549.62
2017-12-01T00:17:51.526Z,98555.65
2017-12-01T00:23:55.814Z,98551.93
2017-12-01T00:29:59.389Z,98549.86
2017-12-01T00:36:02.969Z,98553.42
2017-12-01T00:42:06.492Z,98563.07
2017-12-01T00:48:10.044Z,98567.36
2017-12-01T00:54:13.651Z,98566.61
2017-12-01T01:00:17.159Z,98571.26
2017-12-01T01:06:20.797Z,98575.55
2017-12-01T01:12:24.333Z,98581.41
2017-12-01T01:18:28.105Z,98585.41
2017-12-01T01:24:31.670Z,98595.19
2017-12-01T01:30:36.058Z,98599.94
2017-12-01T01:36:39.695Z,98601.45
2017-12-01T01:42:43.339Z,98606.17
2017-12-01T01:48:47.020Z,98615.09
2017-12-01T01:54:51.488Z,98616.22
2017-12-01T02:00:55.007Z,98627.75
2017-12-01T02:07:00.048Z,98629.17
2017-12-01T02:13:03.704Z,98641.37
2017-12-01T02:19:07.239Z,98657.16
2017-12-01T02:25:11.538Z,98650.48
2017-12-01T02:31:15.992Z,98656.11
2017-12-01T02:37:19.576Z,98665.38
2017-12-01T02:43:23.576Z,98665.60
2017-12-01T02:49:27.862Z,98675.78
2017-12-01T02:55:31.509Z,98683.41
2017-12-01T03:01:35.077Z,98698.77
2017-12-01T03:07:39.408Z,98698.58
2017-12-01T03:13:42.972Z,98698.17
2017-12-01T03:19:46.567Z,98705.67
2017-12-01T03:25:51.533Z,98710.56
2017-12-01T03:31:55.848Z,98717.11
2017-12-01T03:37:59.455Z,98721.14
2017-12-01T03:44:02.966Z,98732.79
2017-12-01T03:50:06.836Z,98741.22
2017-12-01T03:56:10.583Z,98742.87
2017-12-01T04:02:14.285Z,98755.72
2017-12-01T04:08:17.911Z,98764.47
2017-12-01T04:14:22.280Z,98766.00
2017-12-01T04:20:26.065Z,98769.33
2017-12-01T04:26:29.824Z,98778.36
2017-12-01T04:32:33.442Z,98781.02
2017-12-01T04:38:36.942Z,98796.02
2017-12-01T04:44:40.424Z,98798.89
2017-12-01T04:50:43.990Z,98798.13
2017-12-01T04:56:48.345Z,98808.95
2017-12-01T05:02:53.312Z,98812.67
2017-12-01T05:08:57.091Z,98825.92
2017-12-01T05:15:00.593Z,98835.16
2017-12-01T05:21:04.199Z,98845.06
2017-12-01T05:27:08.742Z,98864.16
2017-12-01T05:33:12.316Z,98868.47
2017-12-01T05:39:16.011Z,98877.17
2017-12-01T05:45:20.451Z,98881.59
2017-12-01T05:51:24.428Z,98891.66
2017-12-01T05:57:28.181Z,98905.06
2017-12-01T06:03:31.755Z,98908.36
2017-12-01T06:09:35.289Z,98918.43
2017-12-01T06:15:38.795Z,98923.10
2017-12-01T06:21:42.411Z,98926.44
2017-12-01T06:27:45.928Z,98932.95
2017-12-01T06:33:50.588Z,98944.20
2017-12-01T06:39:55.373Z,98952.83
2017-12-01T06:45:59.172Z,98955.73
2017-12-01T06:52:02.876Z,98970.44
2017-12-01T06:58:07.218Z,98975.50
2017-12-01T07:04:10.784Z,98985.38
2017-12-01T07:10:14.752Z,98997.11
2017-12-01T07:16:18.255Z,99009.51
2017-12-01T07:22:21.938Z,99017.20
2017-12-01T07:28:25.451Z,99029.73
2017-12-01T07:34:29.962Z,99034.61
2017-12-01T07:40:33.469Z,99045.77
2017-12-01T07:46:37.791Z,99047.19
2017-12-01T07:52:41.307Z,99050.47
2017-12-01T07:58:45.591Z,99061.16
2017-12-01T08:04:50.074Z,99070.87
2017-12-01T08:10:53.603Z,99079.47
2017-12-01T08:24:05.714Z,99108.20
2017-12-01T08:30:09.285Z,99120.21
2017-12-01T08:36:12.877Z,99122.41
2017-12-01T08:42:16.427Z,99131.87
2017-12-01T08:48:20.120Z,99133.34
2017-12-01T08:54:24.964Z,99141.27
2017-12-01T09:00:28.481Z,99154.37
2017-12-01T09:06:32.955Z,99156.69
2017-12-01T09:12:37.289Z,99169.11
2017-12-01T09:18:40.835Z,99177.17
2017-12-01T09:24:44.390Z,99189.17
2017-12-01T09:30:47.926Z,99193.23
2017-12-01T09:36:51.862Z,99203.50
2017-12-01T09:42:55.466Z,99203.90
2017-12-01T09:48:59.019Z,99205.95
2017-12-01T09:55:02.571Z,99208.16
2017-12-01T10:01:06.130Z,99224.06
2017-12-01T10:07:09.687Z,99232.53
2017-12-01T10:13:13.233Z,99235.36
2017-12-01T10:19:16.796Z,99239.91
2017-12-01T10:25:20.331Z,99242.15
2017-12-01T10:31:23.980Z,99252.87
2017-12-01T10:37:27.625Z,99253.70
2017-12-01T10:43:31.236Z,99249.08
2017-12-01T10:49:34.846Z,99244.44
2017-12-01T10:55:38.524Z,99252.30
2017-12-01T11:01:42.086Z,99239.45
2017-12-01T11:07:45.642Z,99249.60
2017-12-01T11:13:49.332Z,99258.88
2017-12-01T11:19:53.965Z,99252.89
2017-12-01T11:25:57.599Z,99261.37
2017-12-01T11:32:01.925Z,99261.02
2017-12-01T11:38:05.486Z,99262.91
2017-12-01T11:44:09.343Z,99257.36
2017-12-01T11:50:13.113Z,99267.70
2017-12-01T11:56:16.657Z,99278.03
2017-12-01T12:02:20.207Z,99284.69
2017-12-01T12:08:23.872Z,99280.95
2017-12-01T12:14:27.402Z,99295.48
2017-12-01T12:20:30.924Z,99296.83
2017-12-01T12:26:35.220Z,99302.96
2017-12-01T12:32:38.730Z,99317.09
2017-12-01T12:38:42.362Z,99308.31
2017-12-01T12:44:45.936Z,99319.41
2017-12-01T12:50:49.489Z,99334.90
2017-12-01T12:56:53.803Z,99344.45
2017-12-01T13:02:57.363Z,99349.02
2017-12-01T13:09:01.063Z,99349.78
2017-12-01T13:15:04.802Z,99357.27
2017-12-01T13:21:09.162Z,99361.63
2017-12-01T13:27:12.736Z,99360.11
2017-12-01T13:33:16.406Z,99357.23
2017-12-01T13:39:21.094Z,99367.30
2017-12-01T13:45:24.654Z,99370.72
2017-12-01T13:51:28.211Z,99382.97
2017-12-01T13:57:32.015Z,99383.44
2017-12-01T14:03:35.601Z,99389.47
2017-12-01T14:09:39.158Z,99398.48
2017-12-01T14:15:42.684Z,99406.67
2017-12-01T14:21:46.369Z,99414.43
2017-12-01T14:27:49.886Z,99427.77
2017-12-01T14:33:53.856Z,99435.34
2017-12-01T14:39:57.435Z,99438.24
2017-12-01T14:46:00.969Z,99450.45
2017-12-01T14:52:04.574Z,99447.94
2017-12-01T14:58:08.086Z,99453.77
2017-12-01T15:04:11.659Z,99458.30
2017-12-01T15:10:16.056Z,99478.66
2017-12-01T15:16:19.764Z,99479.52
2017-12-01T15:22:23.289Z,99493.84
2017-12-01T15:28:26.852Z,99502.52
2017-12-01T15:34:30.394Z,99509.37
2017-12-01T15:40:33.914Z,99510.77
2017-12-01T15:46:38.202Z,99520.00
2017-12-01T15:52:41.710Z,99515.95
2017-12-01T15:58:45.480Z,99525.73
2017-12-01T16:04:49.079Z,99535.30
2017-12-01T16:10:52.630Z,99541.19
2017-12-01T16:16:56.197Z,99543.22
2017-12-01T16:23:00.048Z,99551.41
2017-12-01T16:29:03.585Z,99557.61
2017-12-01T16:35:07.885Z,99565.14
2017-12-01T16:41:11.423Z,99579.05
2017-12-01T16:47:15.221Z,99590.06
2017-12-01T16:53:18.791Z,99591.38
2017-12-01T16:59:22.381Z,99602.60
2017-12-01T17:05:26.399Z,99611.25
2017-12-01T17:11:29.910Z,99621.94
2017-12-01T17:17:34.221Z,99635.75
2017-12-01T17:23:37.729Z,99639.73
2017-12-01T17:29:42.050Z,99647.86
2017-12-01T17:35:45.552Z,99659.02
2017-12-01T17:41:49.782Z,99665.00
2017-12-01T17:47:53.297Z,99674.75
2017-12-01T17:53:57.615Z,99677.96
2017-12-01T18:00:01.401Z,99675.05
2017-12-01T18:06:05.729Z,99686.89
2017-12-01T18:12:09.286Z,99688.06
2017-12-01T18:18:12.794Z,99696.98
2017-12-01T18:24:17.080Z,99712.56
2017-12-01T18:30:20.863Z,99717.83
2017-12-01T18:36:24.688Z,99725.03
2017-12-01T18:42:28.999Z,99729.52
2017-12-01T18:48:32.629Z,99724.46
2017-12-01T18:54:36.132Z,99741.01
2017-12-01T19:00:39.662Z,99753.16
2017-12-01T19:06:43.330Z,99759.77
2017-12-01T19:12:47.013Z,99759.77
2017-12-01T19:18:50.578Z,99750.70
2017-12-01T19:24:54.326Z,99746.56
2017-12-01T19:30:57.860Z,99752.77
2017-12-01T19:37:01.381Z,99760.30
2017-12-01T19:43:05.678Z,99767.94
2017-12-01T19:49:09.182Z,99776.95
2017-12-01T19:55:12.714Z,99787.06
2017-12-01T20:01:16.248Z,99800.83
2017-12-01T20:07:19.817Z,99809.20
2017-12-01T20:13:24.471Z,99808.06
2017-12-01T20:19:28.192Z,99810.52
2017-12-01T20:25:31.674Z,99820.03
2017-12-01T20:31:35.185Z,99819.14
2017-12-01T20:37:38.710Z,99831.90
2017-12-01T20:43:42.234Z,99846.98
2017-12-01T20:49:45.839Z,99848.83
2017-12-01T20:55:49.350Z,99852.31
2017-12-01T21:01:53.081Z,99853.52
2017-12-01T21:07:57.386Z,99857.74
2017-12-01T21:14:01.119Z,99859.55
2017-12-01T21:20:05.387Z,99860.23
2017-12-01T21:26:09.665Z,99861.67
2017-12-01T21:32:13.942Z,99863.02
2017-12-01T21:38:17.465Z,99868.03
2017-12-01T21:44:22.498Z,99879.45
2017-12-01T21:50:26.165Z,99888.92
2017-12-01T21:56:30.413Z,99888.09
2017-12-01T22:02:34.851Z,99889.70
2017-12-01T22:08:38.378Z,99887.97
2017-12-01T22:14:41.926Z,99893.05
2017-12-01T22:20:45.470Z,99892.33
2017-12-01T22:26:48.961Z,99901.63
2017-12-01T22:32:52.474Z,99908.81
2017-12-01T22:38:56.162Z,99909.32
2017-12-01T22:44:59.707Z,99911.68
2017-12-01T22:51:03.255Z,99919.86
2017-12-01T22:57:07.223Z,99918.57
2017-12-01T23:03:10.740Z,99922.14
2017-12-01T23:09:14.288Z,99926.56
2017-12-01T23:15:17.935Z,99927.53
2017-12-01T23:21:21.506Z,99933.73
2017-12-01T23:27:25.838Z,99928.36
2017-12-01T23:33:29.412Z,99926.40
2017-12-01T23:39:32.992Z,99933.18
2017-12-01T23:45:36.525Z,99935.48
2017-12-01T23:51:40.294Z,99945.39
2017-12-01T23:57:43.863Z,99954.91
